Time;durP1;ratioP1;P1;durP2;ratioP2;P2;SDS_P1;SDS_P2;PMS_P1;PMS_P2;Temp;Humidity;BMP_temperature;BMP_pressure;BME280_temperature;BME280_humidity;BME280_pressure;Samples;Min_cycle;Max_cycle;Signal;HPM_P1;HPM_P2
2023/06/06 00:01:43;;;;;;;6.50;5.43;;;12.20;1.00;;;;;;5074416;28;20453;-71
2023/06/06 00:04:09;;;;;;;6.47;5.67;;;12.20;1.00;;;;;;5057953;28;20415;-70
2023/06/06 00:06:35;;;;;;;5.53;4.73;;;12.20;1.00;;;;;;5062847;28;20757;-70
2023/06/06 00:09:05;;;;;;;6.30;5.70;;;12.20;1.00;;;;;;5075930;28;20169;-73
2023/06/06 00:11:31;;;;;;;6.33;5.70;;;12.20;1.00;;;;;;5074927;28;20190;-69
2023/06/06 00:13:57;;;;;;;8.13;5.43;;;12.10;1.00;;;;;;5075544;28;20516;-73
2023/06/06 00:16:27;;;;;;;6.53;5.67;;;12.00;1.00;;;;;;5075546;28;20483;-73
2023/06/06 00:18:55;;;;;;;8.30;5.40;;;12.00;1.00;;;;;;5058314;28;20171;-74
2023/06/06 00:21:22;;;;;;;6.57;5.90;;;12.00;1.00;;;;;;5053936;28;20518;-70
2023/06/06 00:23:49;;;;;;;6.03;5.30;;;11.90;1.00;;;;;;5054644;28;20404;-74
2023/06/06 00:26:14;;;;;;;7.13;5.60;;;11.90;1.00;;;;;;5057318;28;20753;-72
2023/06/06 00:28:40;;;;;;;7.73;5.70;;;11.90;1.00;;;;;;5075453;28;20364;-73
2023/06/06 00:31:09;;;;;;;7.77;5.40;;;11.80;1.00;;;;;;5073184;28;20418;-72
2023/06/06 00:33:35;;;;;;;6.67;5.30;;;11.80;1.00;;;;;;5074665;28;20336;-73
2023/06/06 00:36:00;;;;;;;12.43;7.20;;;11.80;1.00;;;;;;5074087;28;20832;-73
2023/06/06 00:38:26;;;;;;;7.57;5.80;;;11.80;1.00;;;;;;5071077;28;20250;-73
2023/06/06 00:40:52;;;;;;;6.37;5.77;;;11.80;1.00;;;;;;5054226;28;20572;-73
2023/06/06 00:43:17;;;;;;;5.83;5.27;;;11.80;1.00;;;;;;5054974;28;20186;-73
2023/06/06 00:45:43;;;;;;;6.67;5.13;;;11.70;1.00;;;;;;5059378;28;20236;-73
2023/06/06 00:48:09;;;;;;;7.87;5.43;;;11.60;1.00;;;;;;5075138;28;20216;-73
2023/06/06 00:50:35;;;;;;;6.13;5.00;;;11.60;1.00;;;;;;5073939;28;20293;-70
2023/06/06 00:53:04;;;;;;;7.50;5.87;;;11.50;1.00;;;;;;5074589;28;20447;-73
2023/06/06 00:55:31;;;;;;;7.93;5.20;;;11.50;1.00;;;;;;5073190;28;20511;-71
2023/06/06 00:57:59;;;;;;;6.90;5.30;;;11.50;1.00;;;;;;5074659;28;20386;-73
2023/06/06 01:00:27;;;;;;;7.00;5.60;;;11.50;1.00;;;;;;5071808;28;21290;-70
2023/06/06 01:02:53;;;;;;;8.60;5.70;;;11.50;1.00;;;;;;5074800;28;20409;-69
2023/06/06 01:05:20;;;;;;;5.83;5.30;;;11.50;1.00;;;;;;5074728;28;20473;-72
2023/06/06 01:07:47;;;;;;;6.20;4.97;;;11.50;1.00;;;;;;5073774;28;20395;-74
2023/06/06 01:10:14;;;;;;;6.73;5.30;;;11.50;1.00;;;;;;5072622;28;20516;-73
2023/06/06 01:13:14;;;;;;;7.73;5.40;;;11.50;1.00;;;;;;5074178;28;20383;-73
2023/06/06 01:16:02;;;;;;;6.27;5.67;;;11.50;1.00;;;;;;5057041;28;20971;-73
2023/06/06 01:18:31;;;;;;;7.77;5.93;;;11.40;1.00;;;;;;5074397;28;20387;-70
2023/06/06 01:20:58;;;;;;;7.07;5.37;;;11.40;1.00;;;;;;5073488;28;20462;-73
2023/06/06 01:23:27;;;;;;;8.33;6.00;;;11.40;1.00;;;;;;5074282;28;20431;-70
2023/06/06 01:25:53;;;;;;;10.87;6.23;;;11.40;1.00;;;;;;5074336;28;20383;-73
2023/06/06 01:28:19;;;;;;;5.60;5.10;;;11.40;1.00;;;;;;5071533;28;20386;-73
2023/06/06 01:30:48;;;;;;;6.00;5.50;;;11.40;1.00;;;;;;5072319;28;20949;-74
2023/06/06 01:33:22;;;;;;;5.83;5.33;;;11.40;1.00;;;;;;5072372;28;20201;-70
2023/06/06 01:36:10;;;;;;;8.73;5.10;;;11.40;1.00;;;;;;5072515;28;20415;-73
2023/06/06 01:38:43;;;;;;;5.17;4.77;;;11.40;1.00;;;;;;5074017;28;20421;-72
2023/06/06 01:41:12;;;;;;;7.60;5.70;;;11.40;1.00;;;;;;5073050;28;20385;-69
2023/06/06 01:43:40;;;;;;;8.60;5.27;;;11.30;1.00;;;;;;5073054;28;20991;-70
2023/06/06 01:46:08;;;;;;;5.83;5.00;;;11.30;1.00;;;;;;5073295;28;20403;-73
2023/06/06 01:48:35;;;;;;;6.50;5.80;;;11.30;1.00;;;;;;5071690;28;20501;-73
2023/06/06 01:51:01;;;;;;;4.73;4.33;;;11.30;1.00;;;;;;5072339;28;20430;-70
2023/06/06 01:53:27;;;;;;;5.70;5.10;;;11.20;1.00;;;;;;5073796;28;20422;-69
2023/06/06 01:55:54;;;;;;;6.73;5.03;;;11.20;1.00;;;;;;5073794;28;20371;-73
2023/06/06 01:58:20;;;;;;;6.90;6.07;;;11.20;1.00;;;;;;5072988;28;20697;-70
2023/06/06 02:00:45;;;;;;;10.27;5.40;;;11.20;1.00;;;;;;5072751;28;20409;-74
2023/06/06 02:03:11;;;;;;;8.40;4.67;;;11.10;1.00;;;;;;5068595;28;20501;-72
2023/06/06 02:05:38;;;;;;;7.93;6.17;;;11.10;1.00;;;;;;5053783;28;20174;-69
2023/06/06 02:08:03;;;;;;;11.90;6.13;;;11.10;1.00;;;;;;5053281;28;20384;-70
2023/06/06 02:10:29;;;;;;;8.27;5.50;;;11.10;1.00;;;;;;5050908;28;20469;-70
2023/06/06 02:12:55;;;;;;;7.00;5.03;;;11.10;1.00;;;;;;5062588;28;20201;-70
2023/06/06 02:15:21;;;;;;;6.37;5.77;;;11.10;1.00;;;;;;5073349;28;20638;-70
2023/06/06 02:17:48;;;;;;;8.07;6.40;;;11.10;1.00;;;;;;5060260;28;20237;-70
2023/06/06 02:20:14;;;;;;;6.33;5.50;;;11.10;1.00;;;;;;5053057;28;20742;-69
2023/06/06 02:22:40;;;;;;;6.60;5.40;;;11.10;1.00;;;;;;5073246;28;20379;-73
2023/06/06 02:25:06;;;;;;;5.20;4.80;;;11.10;1.00;;;;;;5073274;28;20166;-71
2023/06/06 02:27:36;;;;;;;7.13;5.97;;;11.00;1.00;;;;;;5072188;28;20182;-73
2023/06/06 02:30:09;;;;;;;8.93;5.37;;;11.00;1.00;;;;;;5053198;28;20486;-73
2023/06/06 02:32:35;;;;;;;6.53;5.83;;;11.00;1.00;;;;;;5053065;28;20912;-70
2023/06/06 02:35:02;;;;;;;10.20;5.10;;;10.80;1.00;;;;;;5061011;28;20479;-73
2023/06/06 02:37:29;;;;;;;6.90;6.30;;;10.80;1.00;;;;;;5073083;28;20626;-73
2023/06/06 02:39:55;;;;;;;9.70;6.57;;;10.80;1.00;;;;;;5072867;28;20379;-73
2023/06/06 02:42:21;;;;;;;8.70;5.97;;;10.80;1.00;;;;;;5071796;28;20459;-73
2023/06/06 02:44:47;;;;;;;6.20;5.60;;;10.70;1.00;;;;;;5072748;28;20259;-70
2023/06/06 02:47:12;;;;;;;7.83;5.90;;;10.60;1.00;;;;;;5071269;28;20539;-70
2023/06/06 02:49:39;;;;;;;6.10;5.60;;;10.60;1.00;;;;;;5072477;28;20190;-73
2023/06/06 02:52:06;;;;;;;8.10;5.87;;;10.60;1.00;;;;;;5072047;28;20169;-69
2023/06/06 02:54:32;;;;;;;6.33;5.73;;;10.60;1.00;;;;;;5071543;28;20419;-70
2023/06/06 02:56:58;;;;;;;9.10;6.57;;;10.60;1.00;;;;;;5072498;28;20457;-69
2023/06/06 02:59:24;;;;;;;6.33;5.73;;;10.50;1.00;;;;;;5072500;28;20182;-72
2023/06/06 03:01:49;;;;;;;7.70;6.83;;;10.50;1.00;;;;;;5069968;28;20182;-73
2023/06/06 03:04:15;;;;;;;6.37;5.83;;;10.50;1.00;;;;;;5052891;28;20191;-73
2023/06/06 03:06:42;;;;;;;9.13;6.57;;;10.50;1.00;;;;;;5052795;28;20246;-72
2023/06/06 03:09:09;;;;;;;9.57;5.97;;;10.40;1.00;;;;;;5055496;28;20178;-72
2023/06/06 03:11:35;;;;;;;7.00;5.90;;;10.40;1.00;;;;;;5071834;28;20422;-72
2023/06/06 03:14:01;;;;;;;6.97;6.37;;;10.40;1.00;;;;;;5072645;28;20411;-73
2023/06/06 03:16:28;;;;;;;7.13;6.53;;;10.40;1.00;;;;;;5072385;28;20865;-70
2023/06/06 03:18:54;;;;;;;6.93;5.57;;;10.30;1.00;;;;;;5072870;28;20410;-69
2023/06/06 03:21:20;;;;;;;6.03;5.37;;;10.30;1.00;;;;;;5071759;28;20409;-69
2023/06/06 03:23:46;;;;;;;7.10;6.40;;;10.30;1.00;;;;;;5071770;28;20422;-73
2023/06/06 03:26:12;;;;;;;6.70;6.10;;;10.30;1.00;;;;;;5056926;28;20178;-73
2023/06/06 03:28:38;;;;;;;5.33;4.83;;;10.30;1.00;;;;;;5052032;28;20380;-70
2023/06/06 03:31:07;;;;;;;5.93;5.43;;;10.40;1.00;;;;;;5053667;28;20459;-72
2023/06/06 03:33:36;;;;;;;6.50;5.53;;;10.40;1.00;;;;;;5072638;28;20182;-72
2023/06/06 03:36:03;;;;;;;9.10;5.30;;;10.40;1.00;;;;;;5072510;28;20396;-73
2023/06/06 03:38:28;;;;;;;11.63;5.80;;;10.40;1.00;;;;;;5059781;28;20449;-70
2023/06/06 03:40:54;;;;;;;6.27;5.67;;;10.40;1.00;;;;;;5071097;28;20436;-68
2023/06/06 03:43:20;;;;;;;8.47;6.20;;;10.50;1.00;;;;;;5072341;28;20288;-70
2023/06/06 03:45:45;;;;;;;10.80;5.80;;;10.50;1.00;;;;;;5071925;28;20178;-73
2023/06/06 03:48:12;;;;;;;5.53;4.90;;;10.60;1.00;;;;;;5072418;28;20222;-69
2023/06/06 03:50:38;;;;;;;6.07;5.43;;;10.60;1.00;;;;;;5070189;28;20594;-70
2023/06/06 03:53:04;;;;;;;7.90;7.20;;;10.60;1.00;;;;;;5071387;28;20441;-75
2023/06/06 03:55:33;;;;;;;7.57;6.17;;;10.70;1.00;;;;;;5072400;28;20411;-73
2023/06/06 03:57:59;;;;;;;6.47;5.87;;;10.70;1.00;;;;;;5072239;28;20386;-70
2023/06/06 04:00:25;;;;;;;6.23;5.63;;;10.70;1.00;;;;;;5073722;28;21288;-72
2023/06/06 04:02:51;;;;;;;6.77;5.47;;;10.70;1.00;;;;;;5075016;28;20494;-73
2023/06/06 04:05:18;;;;;;;6.80;4.93;;;10.80;1.00;;;;;;5075384;28;20681;-70
2023/06/06 04:07:44;;;;;;;5.70;5.20;;;10.80;1.00;;;;;;5074305;28;20174;-72
2023/06/06 04:10:10;;;;;;;6.30;5.60;;;10.80;1.00;;;;;;5073576;28;20490;-70
2023/06/06 04:12:36;;;;;;;5.87;5.37;;;10.90;1.00;;;;;;5074773;28;20826;-73
2023/06/06 04:15:02;;;;;;;7.43;5.67;;;10.90;1.00;;;;;;5054395;28;20418;-71
2023/06/06 04:17:28;;;;;;;6.93;5.73;;;11.00;1.00;;;;;;5055837;28;20394;-72
2023/06/06 04:19:55;;;;;;;6.50;5.17;;;11.00;1.00;;;;;;5055228;28;20377;-71
2023/06/06 04:22:24;;;;;;;7.50;6.80;;;11.10;1.00;;;;;;5058874;28;20181;-73
2023/06/06 04:24:50;;;;;;;8.70;5.67;;;11.20;1.00;;;;;;5075612;28;20956;-69
2023/06/06 04:27:16;;;;;;;7.33;6.37;;;11.20;1.00;;;;;;5073721;28;20533;-70
2023/06/06 04:29:43;;;;;;;6.63;5.20;;;11.30;1.00;;;;;;5075477;28;20555;-73
2023/06/06 04:32:09;;;;;;;6.60;5.57;;;11.30;1.00;;;;;;5073021;28;20410;-70
2023/06/06 04:34:39;;;;;;;6.37;5.73;;;11.40;1.00;;;;;;5075209;28;20403;-73
2023/06/06 04:37:05;;;;;;;7.43;6.00;;;11.50;1.00;;;;;;5075335;28;20212;-73
2023/06/06 04:39:35;;;;;;;5.83;5.33;;;11.50;1.00;;;;;;5073712;28;20391;-73
2023/06/06 04:42:02;;;;;;;8.30;6.00;;;11.50;1.00;;;;;;5074009;28;20231;-70
2023/06/06 04:44:28;;;;;;;6.83;6.23;;;11.60;1.00;;;;;;5074966;28;20525;-73
2023/06/06 04:47:00;;;;;;;8.30;5.73;;;11.70;1.00;;;;;;5074086;28;20486;-71
2023/06/06 04:49:27;;;;;;;8.70;5.93;;;11.70;1.00;;;;;;5074982;28;20401;-73
2023/06/06 04:51:53;;;;;;;9.13;6.87;;;11.80;1.00;;;;;;5073201;28;20379;-68
2023/06/06 04:54:19;;;;;;;9.30;6.63;;;11.90;1.00;;;;;;5074924;28;20387;-73
2023/06/06 04:56:46;;;;;;;17.83;12.10;;;11.90;1.00;;;;;;5074157;28;20367;-73
2023/06/06 04:59:12;;;;;;;16.17;13.13;;;12.00;1.00;;;;;;5073906;28;20387;-73
2023/06/06 05:01:41;;;;;;;32.03;20.80;;;12.10;1.00;;;;;;5073572;28;20392;-70
2023/06/06 05:04:07;;;;;;;21.80;13.50;;;12.20;1.00;;;;;;5054729;28;20922;-73
2023/06/06 05:06:34;;;;;;;20.03;13.03;;;12.30;1.00;;;;;;5054670;28;20375;-72
2023/06/06 05:09:03;;;;;;;14.80;11.17;;;12.40;4.70;;;;;;5054939;28;20379;-67
2023/06/06 05:11:29;;;;;;;11.30;8.40;;;12.50;19.80;;;;;;5053379;28;20466;-72
2023/06/06 05:13:55;;;;;;;9.30;8.40;;;12.50;33.70;;;;;;5070438;28;20475;-67
2023/06/06 05:16:21;;;;;;;10.30;8.60;;;12.70;54.20;;;;;;5074477;28;20162;-71
2023/06/06 05:18:47;;;;;;;14.70;9.37;;;12.80;77.80;;;;;;5073783;28;20489;-67
2023/06/06 05:21:14;;;;;;;13.10;8.97;;;12.90;93.20;;;;;;5073569;28;20466;-72
2023/06/06 05:23:40;;;;;;;16.40;9.50;;;12.90;98.80;;;;;;5074483;28;20197;-67
2023/06/06 05:26:06;;;;;;;19.63;9.23;;;13.00;99.90;;;;;;5074333;28;20400;-72
2023/06/06 05:28:31;;;;;;;12.40;8.53;;;13.10;99.90;;;;;;5072480;28;20474;-68
2023/06/06 05:30:57;;;;;;;17.00;10.10;;;13.20;99.90;;;;;;5072689;28;20218;-71
2023/06/06 05:33:25;;;;;;;15.27;9.20;;;13.20;99.90;;;;;;5073295;28;20662;-72
2023/06/06 05:35:51;;;;;;;12.33;10.00;;;13.30;99.90;;;;;;5074148;28;20645;-68
2023/06/06 05:38:18;;;;;;;14.73;9.07;;;13.40;99.90;;;;;;5073177;28;20408;-67
2023/06/06 05:40:43;;;;;;;16.37;9.30;;;13.40;99.90;;;;;;5071199;28;20428;-66
2023/06/06 05:43:09;;;;;;;11.50;9.63;;;13.40;99.90;;;;;;5062195;28;20467;-66
2023/06/06 05:45:35;;;;;;;11.50;9.67;;;13.50;99.90;;;;;;5054001;28;20535;-66
2023/06/06 05:48:01;;;;;;;22.17;10.93;;;13.50;99.90;;;;;;5051971;28;20163;-66
2023/06/06 05:50:26;;;;;;;12.73;9.20;;;13.60;99.90;;;;;;5058963;28;20198;-65
2023/06/06 05:52:52;;;;;;;14.27;9.90;;;13.60;99.90;;;;;;5073159;28;20267;-66
2023/06/06 05:55:27;;;;;;;15.30;11.97;;;13.70;99.90;;;;;;5070775;28;20174;-65
2023/06/06 05:57:53;;;;;;;18.13;11.00;;;13.70;99.90;;;;;;5072366;28;20193;-64
2023/06/06 06:00:19;;;;;;;18.73;10.60;;;13.80;99.90;;;;;;5071833;28;20448;-64
2023/06/06 06:02:45;;;;;;;11.87;9.53;;;13.90;99.90;;;;;;5073124;28;20194;-65
2023/06/06 06:05:10;;;;;;;18.57;8.90;;;14.00;99.90;;;;;;5068110;28;20493;-67
2023/06/06 06:07:38;;;;;;;12.70;8.80;;;14.00;99.90;;;;;;5071870;28;20185;-64
2023/06/06 06:10:04;;;;;;;20.00;9.00;;;14.10;99.90;;;;;;5066808;28;20225;-73
2023/06/06 06:12:30;;;;;;;12.60;8.33;;;14.10;99.90;;;;;;5053139;28;20878;-64
2023/06/06 06:14:55;;;;;;;13.73;8.70;;;14.10;99.90;;;;;;5053472;28;20401;-66
2023/06/06 06:17:22;;;;;;;11.50;9.57;;;14.20;99.90;;;;;;5056345;28;20209;-66
2023/06/06 06:19:48;;;;;;;24.23;9.87;;;14.20;99.90;;;;;;5073179;28;20166;-69
2023/06/06 06:22:13;;;;;;;17.00;9.37;;;14.40;99.90;;;;;;5071143;28;20451;-66
2023/06/06 06:24:39;;;;;;;9.87;8.17;;;14.40;99.90;;;;;;5068124;28;20281;-65
2023/06/06 06:27:05;;;;;;;16.00;9.63;;;14.50;99.90;;;;;;5052908;28;20175;-67
2023/06/06 06:29:31;;;;;;;16.33;9.20;;;14.50;99.90;;;;;;5054237;28;20641;-66
2023/06/06 06:31:56;;;;;;;12.80;8.17;;;14.50;99.90;;;;;;5068185;28;20423;-65
2023/06/06 06:34:22;;;;;;;13.27;8.70;;;14.50;93.70;;;;;;5073280;28;20174;-69
2023/06/06 06:36:48;;;;;;;12.53;9.07;;;14.60;93.70;;;;;;5070190;28;20208;-69
2023/06/06 06:39:18;;;;;;;9.47;8.47;;;14.70;93.80;;;;;;5072751;28;20208;-69
2023/06/06 06:41:47;;;;;;;14.03;8.80;;;14.90;93.80;;;;;;5060157;28;20174;-67
2023/06/06 06:44:13;;;;;;;11.53;8.60;;;14.90;93.90;;;;;;5061681;28;20475;-66
2023/06/06 06:46:39;;;;;;;11.27;9.17;;;15.00;82.60;;;;;;5068611;28;20432;-67
2023/06/06 06:49:16;;;;;;;13.70;9.67;;;15.10;68.50;;;;;;5072912;28;20166;-70
2023/06/06 06:51:42;;;;;;;13.33;8.80;;;15.10;59.70;;;;;;5069712;28;20193;-71
2023/06/06 06:54:15;;;;;;;19.83;8.70;;;15.20;56.70;;;;;;5072851;28;20812;-66
2023/06/06 06:56:41;;;;;;;14.40;9.10;;;15.30;48.70;;;;;;5072920;28;20372;-67
2023/06/06 06:59:07;;;;;;;14.40;9.40;;;15.40;28.10;;;;;;5071912;28;20424;-68
2023/06/06 07:01:38;;;;;;;18.80;9.77;;;15.40;15.80;;;;;;5071898;28;20182;-70
2023/06/06 07:04:08;;;;;;;11.63;9.20;;;15.40;7.50;;;;;;5072095;28;20416;-71
2023/06/06 07:06:36;;;;;;;14.53;8.47;;;15.50;1.00;;;;;;5072810;28;20413;-68
2023/06/06 07:09:04;;;;;;;11.17;8.00;;;15.60;1.00;;;;;;5072905;28;20397;-68
2023/06/06 07:11:30;;;;;;;14.33;8.73;;;15.70;1.00;;;;;;5071815;28;20448;-68
2023/06/06 07:13:56;;;;;;;12.90;8.60;;;15.80;1.00;;;;;;5071826;28;20446;-68
2023/06/06 07:16:23;;;;;;;11.30;8.03;;;15.90;1.00;;;;;;5072841;28;20407;-68
2023/06/06 07:18:51;;;;;;;17.40;8.97;;;15.90;1.00;;;;;;5072752;28;20404;-67
2023/06/06 07:21:19;;;;;;;14.50;8.43;;;16.00;1.00;;;;;;5071126;28;20877;-70
2023/06/06 07:23:47;;;;;;;10.07;7.77;;;16.10;1.00;;;;;;5072547;28;20425;-70
2023/06/06 07:26:16;;;;;;;13.83;10.53;;;16.10;1.00;;;;;;5072754;28;20404;-67
2023/06/06 07:28:42;;;;;;;14.37;9.17;;;16.30;1.00;;;;;;5071823;28;20432;-67
2023/06/06 07:31:08;;;;;;;18.00;7.63;;;16.30;1.00;;;;;;5071679;28;20531;-67
2023/06/06 07:33:34;;;;;;;14.90;8.37;;;16.40;1.00;;;;;;5071516;28;21011;-67
2023/06/06 07:36:00;;;;;;;13.83;7.77;;;16.50;1.00;;;;;;5075980;28;20684;-69
2023/06/06 07:38:26;;;;;;;10.60;7.40;;;16.50;1.00;;;;;;5076125;28;20162;-70
2023/06/06 07:40:51;;;;;;;11.50;7.43;;;16.60;1.00;;;;;;5075198;28;20189;-69
2023/06/06 07:43:17;;;;;;;15.60;9.07;;;16.70;1.00;;;;;;5075301;28;20458;-67
2023/06/06 07:45:43;;;;;;;11.10;8.70;;;16.80;1.00;;;;;;5076224;28;20256;-68
2023/06/06 07:48:08;;;;;;;15.73;7.30;;;16.80;1.00;;;;;;5076182;28;20185;-67
2023/06/06 07:50:35;;;;;;;13.83;8.00;;;16.90;1.00;;;;;;5073317;28;20540;-69
2023/06/06 07:53:01;;;;;;;13.43;7.97;;;17.00;1.00;;;;;;5075468;28;20229;-67
2023/06/06 07:55:26;;;;;;;19.50;8.27;;;17.10;1.00;;;;;;5076077;28;20395;-66
2023/06/06 07:57:56;;;;;;;23.13;8.40;;;17.10;1.00;;;;;;5073790;28;20416;-67
2023/06/06 08:00:22;;;;;;;12.57;7.23;;;17.30;1.00;;;;;;5075034;28;20681;-68
2023/06/06 08:02:47;;;;;;;11.70;8.00;;;17.40;1.00;;;;;;5075873;28;20408;-67
2023/06/06 08:05:13;;;;;;;10.40;7.50;;;17.50;1.00;;;;;;5074570;28;20608;-69
2023/06/06 08:07:39;;;;;;;10.00;6.93;;;17.60;1.00;;;;;;5074882;28;20174;-67
2023/06/06 08:10:06;;;;;;;12.10;6.80;;;17.70;1.00;;;;;;5074991;28;20524;-71
2023/06/06 08:12:32;;;;;;;12.30;7.57;;;17.90;1.00;;;;;;5073932;28;20232;-67
2023/06/06 08:14:58;;;;;;;14.43;8.17;;;18.00;1.00;;;;;;5075094;28;20421;-66
2023/06/06 08:17:24;;;;;;;10.47;6.70;;;18.00;1.00;;;;;;5075576;28;20473;-70
2023/06/06 08:19:50;;;;;;;12.10;8.10;;;18.10;1.00;;;;;;5074823;28;20166;-68
2023/06/06 08:22:15;;;;;;;8.23;7.17;;;18.10;1.00;;;;;;5073836;28;20186;-67
2023/06/06 08:24:41;;;;;;;7.23;6.40;;;18.20;1.00;;;;;;5074431;28;20331;-69
2023/06/06 08:27:07;;;;;;;12.13;6.73;;;18.40;1.00;;;;;;5074729;28;20662;-69
2023/06/06 08:29:33;;;;;;;15.03;8.57;;;18.50;1.00;;;;;;5075529;28;20397;-69
2023/06/06 08:32:01;;;;;;;12.20;8.33;;;18.50;1.00;;;;;;5074262;28;20416;-70
2023/06/06 08:34:30;;;;;;;14.17;6.87;;;18.50;1.00;;;;;;5073952;28;20427;-70
2023/06/06 08:36:56;;;;;;;10.83;7.40;;;18.50;1.00;;;;;;5074989;28;20392;-68
2023/06/06 08:39:22;;;;;;;8.27;7.03;;;18.70;1.00;;;;;;5074259;28;20412;-67
2023/06/06 08:41:48;;;;;;;11.63;7.07;;;18.70;1.00;;;;;;5071835;28;20707;-67
2023/06/06 08:44:14;;;;;;;13.97;7.13;;;18.80;1.00;;;;;;5073591;28;20451;-69
2023/06/06 08:46:41;;;;;;;9.23;7.07;;;18.90;1.00;;;;;;5074509;28;20167;-68
2023/06/06 08:49:08;;;;;;;10.80;7.30;;;18.90;1.00;;;;;;5070820;28;20420;-64
2023/06/06 08:51:34;;;;;;;12.83;7.93;;;19.00;1.00;;;;;;5063801;28;20490;-66
2023/06/06 08:54:01;;;;;;;8.13;6.73;;;19.30;1.00;;;;;;5073190;28;20421;-67
2023/06/06 08:56:27;;;;;;;12.40;6.60;;;19.50;1.00;;;;;;5074395;28;20445;-66
2023/06/06 08:58:53;;;;;;;9.00;7.37;;;19.80;1.00;;;;;;5074222;28;20849;-65
2023/06/06 09:01:20;;;;;;;8.03;6.90;;;20.00;1.00;;;;;;5074032;28;20388;-65
2023/06/06 09:03:48;;;;;;;8.40;6.60;;;20.20;1.00;;;;;;5074745;28;20474;-66
2023/06/06 09:06:17;;;;;;;20.40;6.70;;;20.50;1.00;;;;;;5074695;28;20877;-67
2023/06/06 09:08:44;;;;;;;8.30;6.83;;;20.80;1.00;;;;;;5071352;28;20421;-66
2023/06/06 09:11:11;;;;;;;9.00;6.30;;;21.00;1.00;;;;;;5073461;28;20444;-66
2023/06/06 09:13:42;;;;;;;15.10;8.47;;;21.20;1.00;;;;;;5074190;28;20427;-68
2023/06/06 09:16:08;;;;;;;9.90;6.47;;;21.30;1.00;;;;;;5074349;28;20385;-67
2023/06/06 09:18:35;;;;;;;11.23;6.37;;;21.50;1.00;;;;;;5055869;28;20445;-67
2023/06/06 09:21:01;;;;;;;12.20;6.90;;;21.50;1.00;;;;;;5053642;28;20812;-66
2023/06/06 09:23:31;;;;;;;10.93;7.00;;;21.50;1.00;;;;;;5058763;28;20444;-69
2023/06/06 09:25:57;;;;;;;10.87;6.80;;;21.70;1.00;;;;;;5073616;28;20411;-68
2023/06/06 09:28:39;;;;;;;10.37;6.83;;;22.00;1.00;;;;;;5074157;28;20869;-67
2023/06/06 09:31:30;;;;;;;8.40;6.33;;;22.20;1.00;;;;;;5073318;28;20459;-68
2023/06/06 09:33:58;;;;;;;12.20;6.50;;;22.40;1.00;;;;;;5072603;28;20464;-68
2023/06/06 09:36:27;;;;;;;7.33;6.50;;;22.70;1.00;;;;;;5068872;28;20813;-68
2023/06/06 09:38:54;;;;;;;10.17;6.80;;;22.80;1.00;;;;;;5054055;28;20394;-69
2023/06/06 09:41:21;;;;;;;13.17;7.13;;;22.80;1.00;;;;;;5053394;28;20413;-67
2023/06/06 09:43:48;;;;;;;7.73;6.40;;;22.80;99.90;;;;;;5053932;28;20437;-67
2023/06/06 09:46:18;;;;;;;8.63;6.07;;;22.90;99.90;;;;;;5054026;28;20901;-67
2023/06/06 09:48:55;;;;;;;8.67;5.97;;;22.90;99.90;;;;;;5058747;28;20463;-69
2023/06/06 09:51:21;;;;;;;7.63;6.27;;;22.90;99.90;;;;;;5061811;28;20471;-67
2023/06/06 09:53:51;;;;;;;12.27;6.37;;;23.10;99.90;;;;;;5070851;28;20449;-67
2023/06/06 09:56:22;;;;;;;15.93;6.13;;;23.50;99.90;;;;;;5073672;28;20672;-67
2023/06/06 09:58:55;;;;;;;9.67;5.90;;;23.70;99.90;;;;;;5073101;28;20403;-67
2023/06/06 10:01:31;;;;;;;7.20;5.80;;;24.00;99.90;;;;;;5072726;28;20537;-67
2023/06/06 10:03:57;;;;;;;9.17;5.80;;;24.40;99.90;;;;;;5073560;28;20423;-68
2023/06/06 10:06:46;;;;;;;6.13;4.90;;;24.40;99.90;;;;;;5073398;28;20461;-68
2023/06/06 10:09:13;;;;;;;7.63;5.70;;;24.80;99.90;;;;;;5070512;28;20232;-67
2023/06/06 10:11:40;;;;;;;10.10;5.40;;;25.30;99.90;;;;;;5072595;28;20452;-67
2023/06/06 10:14:06;;;;;;;6.20;5.37;;;25.50;99.90;;;;;;5073275;28;20463;-70
2023/06/06 10:16:35;;;;;;;10.40;6.30;;;25.90;99.90;;;;;;5073437;28;20500;-70
2023/06/06 10:19:02;;;;;;;8.23;5.63;;;26.10;99.90;;;;;;5073382;28;20412;-69
2023/06/06 10:21:30;;;;;;;8.77;5.83;;;26.30;99.90;;;;;;5072472;28;20411;-70
2023/06/06 10:23:56;;;;;;;8.90;6.30;;;26.30;99.90;;;;;;5072123;28;20809;-71
2023/06/06 10:26:25;;;;;;;9.83;5.90;;;26.30;99.90;;;;;;5072790;28;20408;-70
2023/06/06 10:29:19;;;;;;;5.97;5.37;;;26.30;99.90;;;;;;5072925;28;20416;-71
2023/06/06 10:32:01;;;;;;;10.10;5.70;;;26.30;99.90;;;;;;5072390;28;20456;-69
2023/06/06 10:34:34;;;;;;;9.83;5.20;;;26.30;99.90;;;;;;5073081;28;20424;-69
2023/06/06 10:37:22;;;;;;;8.17;4.83;;;26.70;99.90;;;;;;5071187;28;20444;-71
2023/06/06 10:40:00;;;;;;;7.60;5.30;;;27.40;99.90;;;;;;5073069;28;20920;-73
2023/06/06 10:42:39;;;;;;;11.20;5.83;;;27.70;99.90;;;;;;5071183;28;20475;-70
2023/06/06 10:45:09;;;;;;;4.50;4.20;;;28.00;99.90;;;;;;5072336;28;20423;-71
2023/06/06 10:47:40;;;;;;;8.43;5.07;;;28.20;99.90;;;;;;5072950;28;20429;-71
2023/06/06 10:50:12;;;;;;;9.10;4.27;;;28.30;99.90;;;;;;5071966;28;20528;-72
2023/06/06 10:52:44;;;;;;;8.10;4.20;;;28.30;99.90;;;;;;5071776;28;20530;-71
2023/06/06 10:55:17;;;;;;;7.17;5.90;;;28.20;99.90;;;;;;5072899;28;20412;-71
2023/06/06 10:57:55;;;;;;;6.60;4.73;;;28.30;99.90;;;;;;5073040;28;20404;-70
2023/06/06 11:00:24;;;;;;;6.90;5.17;;;28.40;99.90;;;;;;5070693;28;20439;-72
2023/06/06 11:02:50;;;;;;;6.30;4.20;;;28.50;99.90;;;;;;5072455;28;20432;-70
2023/06/06 11:05:16;;;;;;;4.70;4.30;;;28.30;99.90;;;;;;5070923;28;20439;-72
2023/06/06 11:07:49;;;;;;;4.40;3.93;;;28.60;99.90;;;;;;5073004;28;20174;-72
2023/06/06 11:10:21;;;;;;;6.60;3.70;;;28.60;99.90;;;;;;5075933;28;20242;-69
2023/06/06 11:12:49;;;;;;;4.90;4.50;;;28.30;99.90;;;;;;5076922;28;20475;-72
2023/06/06 11:15:32;;;;;;;7.77;5.37;;;28.50;99.90;;;;;;5076770;28;20405;-72
2023/06/06 11:18:04;;;;;;;5.37;4.63;;;28.50;99.90;;;;;;5076771;28;20424;-70
2023/06/06 11:20:41;;;;;;;5.40;4.90;;;28.40;99.90;;;;;;5071544;28;20784;-70
2023/06/06 11:23:11;;;;;;;6.70;4.60;;;28.20;99.90;;;;;;5075843;28;20447;-72
2023/06/06 11:25:37;;;;;;;4.80;3.47;;;28.40;99.90;;;;;;5076633;28;20508;-69
2023/06/06 11:28:04;;;;;;;9.07;3.17;;;28.90;99.90;;;;;;5076678;28;20904;-70
2023/06/06 11:30:32;;;;;;;5.30;3.73;;;29.40;99.90;;;;;;5074388;28;20994;-72
2023/06/06 11:33:01;;;;;;;6.67;4.10;;;29.60;99.90;;;;;;5075603;28;20785;-70
2023/06/06 11:35:32;;;;;;;5.90;4.10;;;29.70;99.90;;;;;;5076289;28;20487;-71
2023/06/06 11:37:58;;;;;;;6.30;4.10;;;29.90;99.90;;;;;;5075862;28;20404;-71
2023/06/06 11:40:28;;;;;;;4.40;3.90;;;30.10;99.90;;;;;;5075788;28;21109;-70
2023/06/06 11:42:54;;;;;;;4.53;4.07;;;30.50;99.90;;;;;;5075289;28;20519;-72
2023/06/06 11:45:20;;;;;;;12.53;3.77;;;30.70;99.90;;;;;;5076142;28;20834;-71
2023/06/06 11:47:47;;;;;;;5.00;3.67;;;30.60;99.90;;;;;;5075343;28;20941;-73
2023/06/06 11:50:13;;;;;;;6.83;3.70;;;30.50;99.90;;;;;;5075166;28;20459;-71
2023/06/06 11:52:48;;;;;;;5.63;3.57;;;30.40;99.90;;;;;;5076058;28;20396;-73
2023/06/06 11:55:15;;;;;;;7.10;4.00;;;30.50;99.90;;;;;;5076102;28;20479;-73
2023/06/06 11:57:42;;;;;;;7.80;3.60;;;31.00;99.90;;;;;;5075397;28;20405;-71
2023/06/06 12:00:19;;;;;;;5.77;3.63;;;31.00;99.90;;;;;;5075079;28;20408;-73
2023/06/06 12:02:52;;;;;;;3.47;3.20;;;30.80;99.90;;;;;;5074117;28;20458;-72
2023/06/06 12:05:20;;;;;;;4.03;3.73;;;30.90;99.90;;;;;;5075901;28;20733;-72
2023/06/06 12:07:50;;;;;;;3.77;2.93;;;31.10;99.90;;;;;;5075831;28;20397;-72
2023/06/06 12:10:28;;;;;;;4.17;3.77;;;30.90;99.90;;;;;;5074022;28;20460;-70
2023/06/06 12:12:54;;;;;;;8.23;4.50;;;31.20;99.90;;;;;;5075609;28;20423;-73
2023/06/06 12:15:20;;;;;;;3.63;3.27;;;31.40;99.90;;;;;;5074494;28;20513;-70
2023/06/06 12:17:45;;;;;;;7.83;4.03;;;31.70;99.90;;;;;;5067225;28;20901;-69
2023/06/06 12:20:11;;;;;;;7.20;3.63;;;31.70;99.90;;;;;;5053695;28;20174;-68
2023/06/06 12:22:37;;;;;;;4.70;2.90;;;31.80;99.90;;;;;;5055526;28;20174;-67
2023/06/06 12:25:04;;;;;;;4.10;3.50;;;31.80;99.90;;;;;;5055239;28;20496;-66
2023/06/06 12:27:36;;;;;;;4.87;4.27;;;32.10;99.90;;;;;;5055229;28;20171;-67
2023/06/06 12:30:03;;;;;;;4.90;3.33;;;32.20;99.90;;;;;;5075183;28;20498;-68
2023/06/06 12:32:32;;;;;;;5.70;3.90;;;31.90;99.90;;;;;;5074928;28;20400;-68
2023/06/06 12:35:03;;;;;;;4.40;3.40;;;31.60;99.90;;;;;;5074625;28;20400;-67
2023/06/06 12:37:42;;;;;;;5.17;3.30;;;31.80;99.90;;;;;;5075288;28;20393;-66
2023/06/06 12:40:18;;;;;;;4.77;4.20;;;31.90;99.90;;;;;;5074126;28;20421;-68
2023/06/06 12:42:58;;;;;;;4.73;3.30;;;31.70;99.90;;;;;;5073683;28;20487;-66
2023/06/06 12:45:26;;;;;;;5.23;3.40;;;30.90;99.90;;;;;;5075052;28;20439;-68
2023/06/06 12:47:53;;;;;;;7.07;3.23;;;30.70;99.90;;;;;;5075062;28;20495;-70
2023/06/06 12:50:22;;;;;;;5.10;3.70;;;30.40;99.90;;;;;;5074005;28;20452;-67
2023/06/06 12:52:49;;;;;;;3.33;2.97;;;30.30;99.90;;;;;;5072332;28;20835;-71